createdAt,value
2019-02-06T00:00:13.852Z,290.67
2019-02-06T00:01:13.958Z,290.62
2019-02-06T00:02:14.181Z,290.74
2019-02-06T00:03:14.376Z,290.37
2019-02-06T00:04:15.563Z,290.88
2019-02-06T00:05:15.833Z,290.99
2019-02-06T00:06:14.991Z,290.43
2019-02-06T00:07:15.217Z,290.71
2019-02-06T00:08:15.550Z,290.70
2019-02-06T00:09:15.639Z,290.34
2019-02-06T00:10:15.821Z,290.03
2019-02-06T00:11:16.075Z,290.44
2019-02-06T00:12:16.286Z,290.35
2019-02-06T00:13:22.580Z,290.21
2019-02-06T00:14:16.723Z,290.28
2019-02-06T00:15:16.917Z,290.01
2019-02-06T00:16:17.229Z,290.52
2019-02-06T00:17:17.332Z,289.96
2019-02-06T00:18:17.502Z,290.29
2019-02-06T00:19:17.754Z,290.21
2019-02-06T00:20:17.923Z,289.91
2019-02-06T00:21:20.373Z,290.47
2019-02-06T00:22:18.341Z,290.36
2019-02-06T00:23:18.557Z,290.11
2019-02-06T00:24:18.797Z,289.97
2019-02-06T00:25:18.955Z,289.64
2019-02-06T00:26:19.164Z,289.91
2019-02-06T00:27:19.362Z,289.85
2019-02-06T00:28:19.563Z,289.68
2019-02-06T00:29:19.785Z,289.73
2019-02-06T00:30:19.978Z,289.82
2019-02-06T00:31:20.196Z,289.84
2019-02-06T00:32:20.445Z,289.66
2019-02-06T00:33:20.584Z,289.95
2019-02-06T00:34:20.827Z,289.52
2019-02-06T00:35:25.794Z,289.55
2019-02-06T00:36:22.242Z,288.69
2019-02-06T00:37:21.452Z,290.41
2019-02-06T00:38:21.639Z,289.78
2019-02-06T00:39:21.828Z,290.24
2019-02-06T00:40:22.306Z,290.11
2019-02-06T00:41:22.388Z,289.24
2019-02-06T00:42:22.490Z,289.90
2019-02-06T00:43:22.683Z,289.43
2019-02-06T00:44:22.889Z,289.99
2019-02-06T00:45:23.113Z,289.35
2019-02-06T00:46:23.300Z,289.38
2019-02-06T00:47:23.530Z,289.55
2019-02-06T00:48:23.715Z,289.99
2019-02-06T00:49:24.005Z,289.75
2019-02-06T00:50:24.130Z,289.72
2019-02-06T00:51:24.332Z,289.26
2019-02-06T00:52:24.561Z,289.30
2019-02-06T00:53:24.742Z,289.39
2019-02-06T00:54:24.955Z,289.17
2019-02-06T00:55:25.196Z,289.90
2019-02-06T00:56:25.381Z,290.02
2019-02-06T00:57:25.676Z,289.40
2019-02-06T00:58:25.772Z,289.89
2019-02-06T00:59:25.991Z,289.82
2019-02-06T01:00:26.245Z,289.80
2019-02-06T01:01:26.426Z,289.79
2019-02-06T01:02:26.659Z,290.01
2019-02-06T01:03:26.850Z,289.94
2019-02-06T01:04:27.059Z,289.87
2019-02-06T01:05:37.443Z,290.20
2019-02-06T01:06:28.433Z,289.56
2019-02-06T01:07:27.684Z,289.70
2019-02-06T01:08:27.866Z,289.61
2019-02-06T01:09:28.070Z,289.73
2019-02-06T01:10:28.336Z,289.61
2019-02-06T01:11:28.494Z,289.17
2019-02-06T01:12:28.704Z,289.19
2019-02-06T01:13:28.964Z,289.44
2019-02-06T01:14:29.309Z,289.21
2019-02-06T01:15:29.659Z,289.18
2019-02-06T01:16:29.547Z,289.89
2019-02-06T01:17:29.750Z,289.96
2019-02-06T01:18:29.957Z,288.64
2019-02-06T01:19:30.176Z,289.72
2019-02-06T01:20:30.454Z,289.68
2019-02-06T01:21:30.598Z,289.75
2019-02-06T01:22:30.887Z,289.26
2019-02-06T01:23:31.003Z,289.32
2019-02-06T01:24:31.211Z,288.72
2019-02-06T01:25:31.461Z,288.74
2019-02-06T01:26:31.618Z,289.26
2019-02-06T01:27:31.837Z,288.96
2019-02-06T01:28:32.011Z,289.04
2019-02-06T01:29:32.238Z,289.29
2019-02-06T01:30:32.606Z,289.51
2019-02-06T01:31:32.663Z,289.17
2019-02-06T01:32:32.910Z,289.65
2019-02-06T01:33:33.069Z,289.33
2019-02-06T01:34:33.293Z,290.14
2019-02-06T01:35:33.539Z,288.91
2019-02-06T01:36:33.714Z,289.17
2019-02-06T01:37:33.928Z,290.17
2019-02-06T01:38:34.167Z,289.98
2019-02-06T01:39:34.310Z,290.23
2019-02-06T01:40:34.589Z,290.76
2019-02-06T01:41:34.736Z,291.19
2019-02-06T01:42:35.205Z,290.32
2019-02-06T01:43:35.157Z,290.28
2019-02-06T01:44:35.354Z,289.81
2019-02-06T01:45:35.592Z,289.71
2019-02-06T01:46:35.805Z,290.03
2019-02-06T01:47:35.963Z,289.55
2019-02-06T01:48:36.168Z,289.45
2019-02-06T01:49:36.372Z,289.45
2019-02-06T01:50:36.640Z,289.46
2019-02-06T01:51:36.850Z,289.19
2019-02-06T01:52:37.012Z,289.19
2019-02-06T01:53:37.203Z,289.34
2019-02-06T01:54:37.437Z,289.49
2019-02-06T01:55:37.767Z,289.64
2019-02-06T01:56:37.805Z,289.12
2019-02-06T01:57:38.032Z,289.16
2019-02-06T01:58:38.245Z,289.45
2019-02-06T01:59:38.457Z,289.31
2019-02-06T02:00:38.746Z,289.33
2019-02-06T02:01:38.873Z,289.07
2019-02-06T02:02:39.064Z,289.70
2019-02-06T02:03:39.382Z,288.90
2019-02-06T02:04:39.502Z,288.94
2019-02-06T02:05:39.756Z,289.23
2019-02-06T02:06:39.903Z,288.99
2019-02-06T02:07:40.116Z,289.31
2019-02-06T02:08:40.349Z,289.59
2019-02-06T02:09:40.543Z,289.61
2019-02-06T02:10:40.794Z,289.20
2019-02-06T02:11:41.029Z,289.49
2019-02-06T02:12:41.134Z,289.25
2019-02-06T02:13:41.387Z,289.03
2019-02-06T02:14:41.577Z,289.18
2019-02-06T02:15:41.832Z,289.41
2019-02-06T02:16:41.978Z,289.40
2019-02-06T02:17:42.185Z,289.30
2019-02-06T02:18:42.399Z,289.25
2019-02-06T02:19:42.649Z,289.48
2019-02-06T02:20:42.854Z,289.48
2019-02-06T02:21:43.028Z,289.34
2019-02-06T02:22:43.227Z,290.09
2019-02-06T02:23:43.444Z,289.78
2019-02-06T02:24:43.612Z,289.67
2019-02-06T02:25:43.883Z,289.54
2019-02-06T02:26:44.039Z,289.48
2019-02-06T02:27:44.283Z,289.58
2019-02-06T02:28:44.629Z,290.35
2019-02-06T02:29:44.652Z,289.64
2019-02-06T02:30:44.925Z,290.04
2019-02-06T02:31:45.098Z,289.36
2019-02-06T02:32:45.292Z,289.53
2019-02-06T02:33:45.520Z,289.50
2019-02-06T02:34:45.708Z,289.95
2019-02-06T02:35:45.980Z,290.40
2019-02-06T02:36:46.242Z,290.66
2019-02-06T02:37:46.342Z,290.10
2019-02-06T02:38:46.568Z,290.19
2019-02-06T02:39:46.756Z,290.25
2019-02-06T02:40:46.989Z,289.97
2019-02-06T02:41:47.170Z,289.87
2019-02-06T02:42:47.392Z,289.66
2019-02-06T02:43:47.610Z,289.73
2019-02-06T02:44:47.914Z,290.04
2019-02-06T02:45:48.052Z,289.91
2019-02-06T02:46:48.223Z,290.31
2019-02-06T02:47:48.431Z,289.39
2019-02-06T02:48:48.653Z,289.49
2019-02-06T02:49:48.843Z,289.31
2019-02-06T02:50:49.085Z,289.42
2019-02-06T02:51:49.238Z,288.97
2019-02-06T02:52:49.526Z,289.84
2019-02-06T02:53:49.689Z,289.22
2019-02-06T02:54:49.883Z,289.83
2019-02-06T02:55:50.144Z,289.89
2019-02-06T02:56:50.296Z,289.50
2019-02-06T02:57:50.478Z,289.99
2019-02-06T02:58:50.723Z,289.73
2019-02-06T02:59:50.915Z,289.54
2019-02-06T03:00:51.191Z,289.31
2019-02-06T03:01:51.303Z,289.95
2019-02-06T03:02:51.503Z,289.62
2019-02-06T03:03:51.734Z,289.45
2019-02-06T03:04:51.935Z,290.13
2019-02-06T03:05:52.394Z,288.96
2019-02-06T03:06:52.363Z,289.01
2019-02-06T03:07:52.585Z,289.78
2019-02-06T03:08:52.814Z,289.78
2019-02-06T03:09:53.038Z,288.84
2019-02-06T03:10:53.231Z,289.31
2019-02-06T03:11:53.445Z,288.42
2019-02-06T03:12:53.636Z,288.63
2019-02-06T03:13:53.853Z,288.77
2019-02-06T03:14:54.065Z,289.31
2019-02-06T03:15:54.256Z,288.46
2019-02-06T03:16:54.549Z,289.05
2019-02-06T03:17:54.750Z,288.86
2019-02-06T03:18:54.872Z,288.84
2019-02-06T03:19:55.060Z,289.29
2019-02-06T03:20:55.280Z,288.23
2019-02-06T03:21:55.760Z,288.86
2019-02-06T03:22:55.691Z,288.80
2019-02-06T03:23:55.944Z,288.74
2019-02-06T03:24:56.117Z,288.42
2019-02-06T03:25:56.423Z,288.31
2019-02-06T03:26:56.541Z,288.57
2019-02-06T03:27:56.732Z,288.48
2019-02-06T03:28:56.945Z,288.04
2019-02-06T03:29:57.145Z,288.93
2019-02-06T03:30:57.337Z,288.28
2019-02-06T03:31:57.586Z,288.69
2019-02-06T03:32:57.800Z,288.90
2019-02-06T03:33:58.042Z,289.06
2019-02-06T03:34:58.161Z,289.30
2019-02-06T03:35:58.372Z,289.44
2019-02-06T03:36:58.603Z,289.20
2019-02-06T03:37:58.783Z,289.10
2019-02-06T03:38:59.016Z,289.42
2019-02-06T03:39:59.191Z,289.88
2019-02-06T03:40:59.403Z,289.56
2019-02-06T03:41:59.676Z,289.81
2019-02-06T03:42:59.796Z,289.56
2019-02-06T03:44:00.044Z,290.47
2019-02-06T03:45:00.289Z,290.63
2019-02-06T03:46:00.442Z,292.60
2019-02-06T03:47:00.683Z,290.90
2019-02-06T03:48:00.866Z,290.13
2019-02-06T03:49:01.062Z,290.33
2019-02-06T03:50:01.279Z,289.16
2019-02-06T03:51:01.587Z,289.82
2019-02-06T03:52:01.713Z,289.60
2019-02-06T03:53:01.875Z,289.79
2019-02-06T03:54:02.111Z,289.85
2019-02-06T03:55:02.325Z,289.15
2019-02-06T03:56:02.528Z,289.55
2019-02-06T03:57:02.764Z,290.02
2019-02-06T03:58:02.944Z,290.35
2019-02-06T03:59:03.251Z,290.27
2019-02-06T04:00:03.346Z,289.56
2019-02-06T04:01:03.553Z,290.10
2019-02-06T04:02:03.797Z,289.18
2019-02-06T04:03:03.965Z,288.92
2019-02-06T04:04:04.162Z,289.02
2019-02-06T04:05:04.368Z,289.22
2019-02-06T04:06:04.599Z,289.58
2019-02-06T04:07:04.920Z,289.35
2019-02-06T04:08:04.991Z,288.88
2019-02-06T04:09:05.200Z,289.52
2019-02-06T04:10:05.458Z,290.16
2019-02-06T04:11:05.632Z,290.05
2019-02-06T04:12:05.883Z,290.13
2019-02-06T04:13:06.045Z,289.77
2019-02-06T04:14:06.253Z,289.61
2019-02-06T04:15:06.518Z,290.13
2019-02-06T04:16:06.653Z,291.20
2019-02-06T04:17:06.900Z,291.24
2019-02-06T04:18:07.079Z,290.50
2019-02-06T04:19:07.288Z,290.33
2019-02-06T04:20:07.511Z,290.16
2019-02-06T04:21:07.702Z,290.21
2019-02-06T04:22:07.956Z,289.97
2019-02-06T04:23:08.156Z,289.88
2019-02-06T04:24:08.419Z,289.60
2019-02-06T04:25:08.590Z,290.38
2019-02-06T04:26:08.781Z,290.24
2019-02-06T04:27:09.038Z,290.80
2019-02-06T04:28:09.179Z,290.87
2019-02-06T04:29:09.401Z,290.91
2019-02-06T04:30:09.631Z,291.52
2019-02-06T04:31:09.832Z,291.91
2019-02-06T04:32:10.171Z,291.87
2019-02-06T04:33:10.231Z,292.21
2019-02-06T04:34:10.437Z,291.73
2019-02-06T04:35:10.668Z,292.35
2019-02-06T04:36:10.850Z,292.06
2019-02-06T04:37:11.115Z,292.31
2019-02-06T04:38:11.238Z,292.29
2019-02-06T04:39:11.463Z,292.91
2019-02-06T04:40:11.788Z,293.98
2019-02-06T04:41:11.898Z,294.23
2019-02-06T04:42:12.165Z,294.57
2019-02-06T04:43:12.287Z,293.57
2019-02-06T04:44:12.501Z,293.17
2019-02-06T04:45:12.757Z,292.85
2019-02-06T04:46:12.937Z,292.98
2019-02-06T04:47:13.183Z,292.48
2019-02-06T04:48:13.398Z,292.68
2019-02-06T04:49:13.536Z,292.69
2019-02-06T04:50:13.782Z,293.13
2019-02-06T04:51:13.975Z,294.18
2019-02-06T04:52:14.217Z,293.83
2019-02-06T04:53:14.380Z,292.56
2019-02-06T04:54:14.581Z,292.72
2019-02-06T04:55:14.796Z,293.13
2019-02-06T04:56:15.068Z,293.35
2019-02-06T04:57:15.224Z,293.81
2019-02-06T04:58:15.413Z,293.62
2019-02-06T04:59:15.629Z,293.87
2019-02-06T05:00:16.089Z,293.64
2019-02-06T05:01:16.029Z,293.74
2019-02-06T05:02:16.292Z,293.52
2019-02-06T05:03:16.460Z,292.65
2019-02-06T05:04:16.712Z,293.19
2019-02-06T05:05:16.930Z,293.68
2019-02-06T05:06:17.079Z,293.70
2019-02-06T05:07:19.155Z,293.89
2019-02-06T05:08:17.498Z,293.82
2019-02-06T05:09:17.694Z,293.73
2019-02-06T05:10:17.918Z,293.70
2019-02-06T05:11:18.113Z,293.87
2019-02-06T05:12:18.336Z,293.74
2019-02-06T05:13:18.656Z,293.93
2019-02-06T05:14:18.760Z,293.73
2019-02-06T05:15:18.971Z,293.67
2019-02-06T05:16:19.262Z,293.95
2019-02-06T05:17:19.349Z,294.51
2019-02-06T05:18:19.596Z,294.42
2019-02-06T05:19:19.799Z,294.20
2019-02-06T05:20:20.033Z,293.50
2019-02-06T05:21:20.307Z,293.50
2019-02-06T05:22:20.385Z,294.23
2019-02-06T05:23:20.638Z,293.90
2019-02-06T05:24:20.832Z,293.70
2019-02-06T05:25:21.091Z,294.61
2019-02-06T05:26:21.236Z,294.30
2019-02-06T05:27:21.441Z,294.33
2019-02-06T05:28:21.662Z,294.03
2019-02-06T05:29:21.909Z,293.81
2019-02-06T05:30:22.099Z,293.83
2019-02-06T05:31:22.271Z,293.44
2019-02-06T05:32:22.489Z,294.01
2019-02-06T05:33:22.733Z,293.99
2019-02-06T05:34:22.876Z,294.06
2019-02-06T05:35:23.113Z,293.12
2019-02-06T05:36:23.305Z,293.63
2019-02-06T05:37:31.507Z,293.82
2019-02-06T05:38:24.754Z,294.67
2019-02-06T05:39:23.914Z,293.88
2019-02-06T05:40:24.177Z,294.83
2019-02-06T05:41:24.358Z,294.65
2019-02-06T05:42:24.575Z,294.49
2019-02-06T05:43:24.812Z,294.70
2019-02-06T05:44:24.978Z,294.81
2019-02-06T05:45:25.229Z,294.21
2019-02-06T05:46:25.550Z,293.92
2019-02-06T05:47:25.601Z,293.87
2019-02-06T05:48:25.832Z,293.48
2019-02-06T05:49:26.011Z,294.24
2019-02-06T05:50:26.232Z,294.43
2019-02-06T05:51:26.412Z,293.86
2019-02-06T05:52:26.634Z,294.10
2019-02-06T05:53:26.870Z,294.12
2019-02-06T05:54:27.268Z,293.53
2019-02-06T05:55:27.260Z,293.37
2019-02-06T05:56:27.471Z,292.92
2019-02-06T05:57:27.690Z,294.25
2019-02-06T05:58:27.949Z,293.73
2019-02-06T05:59:28.110Z,293.56
2019-02-06T06:00:28.334Z,293.64
2019-02-06T06:01:28.518Z,293.51
2019-02-06T06:02:28.760Z,293.23
2019-02-06T06:03:28.945Z,294.17
2019-02-06T06:04:29.138Z,293.72
2019-02-06T06:05:29.359Z,293.77
2019-02-06T06:06:29.673Z,293.75
2019-02-06T06:07:29.736Z,293.94
2019-02-06T06:08:30.062Z,293.95
2019-02-06T06:09:30.166Z,294.11
2019-02-06T06:10:30.469Z,294.13
2019-02-06T06:11:30.582Z,293.45
2019-02-06T06:12:30.775Z,293.94
2019-02-06T06:13:35.637Z,293.81
2019-02-06T06:14:31.183Z,294.15
2019-02-06T06:15:31.426Z,293.67
2019-02-06T06:16:31.620Z,294.62
2019-02-06T06:17:31.815Z,294.88
2019-02-06T06:18:32.097Z,295.08
2019-02-06T06:19:32.254Z,294.27
2019-02-06T06:20:32.481Z,294.06
2019-02-06T06:21:32.654Z,293.78
2019-02-06T06:22:32.857Z,293.94
2019-02-06T06:23:33.096Z,294.18
2019-02-06T06:24:33.275Z,293.75
2019-02-06T06:25:33.457Z,293.48
2019-02-06T06:26:33.712Z,294.50
2019-02-06T06:27:33.990Z,294.08
2019-02-06T06:28:34.133Z,294.44
2019-02-06T06:29:34.294Z,293.43
2019-02-06T06:30:34.512Z,294.38
2019-02-06T06:31:34.752Z,293.50
2019-02-06T06:32:34.962Z,294.40
2019-02-06T06:33:35.187Z,294.38
2019-02-06T06:34:35.371Z,293.77
2019-02-06T06:35:35.677Z,293.83
2019-02-06T06:36:35.799Z,294.54
2019-02-06T06:37:35.990Z,294.49
2019-02-06T06:38:36.461Z,294.23
2019-02-06T06:39:36.403Z,294.20
2019-02-06T06:40:36.608Z,294.14
2019-02-06T06:41:36.815Z,294.11
2019-02-06T06:42:37.021Z,293.66
2019-02-06T06:43:37.313Z,294.19
2019-02-06T06:44:37.419Z,293.85
2019-02-06T06:45:37.632Z,294.13
2019-02-06T06:46:37.839Z,293.18
2019-02-06T06:47:38.030Z,293.58
2019-02-06T06:48:38.281Z,294.82
2019-02-06T06:49:38.460Z,294.43
2019-02-06T06:50:38.667Z,294.18
2019-02-06T06:51:38.978Z,294.19
2019-02-06T06:52:39.043Z,293.94
2019-02-06T06:53:39.306Z,293.95
2019-02-06T06:54:39.500Z,293.84
2019-02-06T06:55:39.708Z,294.52
2019-02-06T06:56:39.933Z,294.59
2019-02-06T06:57:40.126Z,293.79
2019-02-06T06:58:40.355Z,294.58
2019-02-06T06:59:40.568Z,293.60
2019-02-06T07:00:40.834Z,293.40
2019-02-06T07:01:40.968Z,293.62
2019-02-06T07:02:41.654Z,293.89
2019-02-06T07:03:41.396Z,293.56
2019-02-06T07:04:41.556Z,293.85
2019-02-06T07:05:41.783Z,293.87
2019-02-06T07:06:42.005Z,293.46
2019-02-06T07:07:42.198Z,294.08
2019-02-06T07:08:42.480Z,293.46
2019-02-06T07:09:42.612Z,293.96
2019-02-06T07:10:42.831Z,293.85
2019-02-06T07:11:43.046Z,293.17
2019-02-06T07:12:43.235Z,293.88
2019-02-06T07:13:43.469Z,293.29
2019-02-06T07:14:43.639Z,293.66
2019-02-06T07:15:43.868Z,293.44
2019-02-06T07:16:44.219Z,293.37
2019-02-06T07:17:44.279Z,294.14
2019-02-06T07:18:44.514Z,294.09
2019-02-06T07:19:44.684Z,293.70
2019-02-06T07:20:44.889Z,293.26
2019-02-06T07:21:45.126Z,293.68
2019-02-06T07:22:45.315Z,293.89
2019-02-06T07:23:45.562Z,293.76
2019-02-06T07:24:45.774Z,293.56
2019-02-06T07:25:45.903Z,293.85
2019-02-06T07:26:46.137Z,293.34
2019-02-06T07:27:46.343Z,294.33
2019-02-06T07:28:46.573Z,294.17
2019-02-06T07:29:46.757Z,293.58
2019-02-06T07:30:46.961Z,291.84
2019-02-06T07:31:47.192Z,293.92
2019-02-06T07:32:47.440Z,294.05
2019-02-06T07:33:47.591Z,293.40
2019-02-06T07:34:47.814Z,293.36
2019-02-06T07:35:48.019Z,295.10
2019-02-06T07:36:48.245Z,294.24
2019-02-06T07:37:48.435Z,294.11
2019-02-06T07:38:48.636Z,293.58
2019-02-06T07:39:48.866Z,293.65
2019-02-06T07:40:49.090Z,293.26
2019-02-06T07:41:49.396Z,292.88
2019-02-06T07:42:49.466Z,293.52
2019-02-06T07:43:49.702Z,292.73
2019-02-06T07:44:49.909Z,293.41
2019-02-06T07:45:50.107Z,293.52
2019-02-06T07:46:50.332Z,292.76
2019-02-06T07:47:50.520Z,292.92
2019-02-06T07:48:50.725Z,292.54
2019-02-06T07:49:51.086Z,292.53
2019-02-06T07:50:51.153Z,293.17
2019-02-06T07:51:51.382Z,292.62
2019-02-06T07:52:51.562Z,292.70
2019-02-06T07:53:51.783Z,292.39
2019-02-06T07:54:52.007Z,293.64
2019-02-06T07:55:52.197Z,293.87
2019-02-06T07:56:52.423Z,292.68
2019-02-06T07:57:52.675Z,292.48
2019-02-06T07:58:52.850Z,292.51
2019-02-06T07:59:53.018Z,292.35
2019-02-06T08:00:53.225Z,292.34
2019-02-06T08:01:53.441Z,292.14
2019-02-06T08:02:53.639Z,292.14
2019-02-06T08:03:53.868Z,292.77
2019-02-06T08:04:54.072Z,292.34
2019-02-06T08:05:54.327Z,293.21
2019-02-06T08:06:54.483Z,293.10
2019-02-06T08:07:54.709Z,292.81
2019-02-06T08:08:54.867Z,293.03
2019-02-06T08:09:55.102Z,292.60
2019-02-06T08:10:55.283Z,293.72
2019-02-06T08:11:55.491Z,294.15
2019-02-06T08:12:55.701Z,293.69
2019-02-06T08:13:56.003Z,293.03
2019-02-06T08:14:56.163Z,292.77
2019-02-06T08:15:56.300Z,294.49
2019-02-06T08:16:56.775Z,293.67
2019-02-06T08:17:56.748Z,292.91
2019-02-06T08:18:56.966Z,292.92
2019-02-06T08:19:57.198Z,293.15
2019-02-06T08:20:57.370Z,292.64
2019-02-06T08:21:57.605Z,300.73
2019-02-06T08:22:57.923Z,308.35
2019-02-06T08:23:58.027Z,295.90
2019-02-06T08:24:58.258Z,292.65
2019-02-06T08:25:58.442Z,292.31
2019-02-06T08:26:58.656Z,292.44
2019-02-06T08:27:58.851Z,292.14
2019-02-06T08:28:59.067Z,291.44
2019-02-06T08:29:59.283Z,291.23
2019-02-06T08:30:59.633Z,292.11
2019-02-06T08:31:59.668Z,291.83
2019-02-06T08:32:59.897Z,292.57
2019-02-06T08:34:00.099Z,292.31
2019-02-06T08:35:00.354Z,292.49
2019-02-06T08:36:00.514Z,293.30
2019-02-06T08:37:00.725Z,292.20
2019-02-06T08:38:00.942Z,291.27
2019-02-06T08:39:01.212Z,291.84
2019-02-06T08:40:01.354Z,291.17
2019-02-06T08:41:01.537Z,291.00
2019-02-06T08:42:01.752Z,291.34
2019-02-06T08:43:01.982Z,291.46
2019-02-06T08:44:02.177Z,291.19
2019-02-06T08:45:02.406Z,291.31
2019-02-06T08:46:02.603Z,291.15
2019-02-06T08:47:02.841Z,291.87
2019-02-06T08:48:03.013Z,290.93
2019-02-06T08:49:03.208Z,291.24
2019-02-06T08:50:03.441Z,291.52
2019-02-06T08:51:03.636Z,291.32
2019-02-06T08:52:03.858Z,291.32
2019-02-06T08:53:04.099Z,291.23
2019-02-06T08:54:04.272Z,291.31
2019-02-06T08:55:04.537Z,291.68
2019-02-06T08:56:04.756Z,293.39
2019-02-06T08:57:04.888Z,291.92
2019-02-06T08:58:05.174Z,292.37
2019-02-06T08:59:05.303Z,291.82
2019-02-06T09:00:05.529Z,292.02
2019-02-06T09:01:05.699Z,291.11
2019-02-06T09:02:05.926Z,290.58
2019-02-06T09:03:06.192Z,290.49
2019-02-06T09:04:06.544Z,291.84
2019-02-06T09:05:07.539Z,291.10
2019-02-06T09:06:06.752Z,290.49
2019-02-06T09:07:06.960Z,290.83
2019-02-06T09:08:07.224Z,289.81
2019-02-06T09:09:07.409Z,290.63
2019-02-06T09:10:07.642Z,291.00
2019-02-06T09:11:07.825Z,290.35
2019-02-06T09:12:08.323Z,289.82
2019-02-06T09:13:08.248Z,290.32
2019-02-06T09:14:08.424Z,290.40
2019-02-06T09:15:08.654Z,290.42
2019-02-06T09:16:08.836Z,291.02
2019-02-06T09:17:09.025Z,290.37
2019-02-06T09:18:09.251Z,290.00
2019-02-06T09:19:09.456Z,290.20
2019-02-06T09:20:09.723Z,289.97
2019-02-06T09:21:09.849Z,290.25
2019-02-06T09:22:10.075Z,289.99
2019-02-06T09:23:10.269Z,290.65
2019-02-06T09:24:10.461Z,290.80
2019-02-06T09:25:10.718Z,290.59
2019-02-06T09:26:10.878Z,289.93
2019-02-06T09:27:11.098Z,291.12
2019-02-06T09:28:11.356Z,289.82
2019-02-06T09:29:11.513Z,289.85
2019-02-06T09:30:11.854Z,290.06
2019-02-06T09:31:11.928Z,289.26
2019-02-06T09:32:12.132Z,290.20
2019-02-06T09:33:12.358Z,289.64
2019-02-06T09:34:12.554Z,289.46
2019-02-06T09:35:12.791Z,289.91
2019-02-06T09:36:12.978Z,290.38
2019-02-06T09:37:13.295Z,290.21
2019-02-06T09:38:13.407Z,290.18
2019-02-06T09:39:13.598Z,289.61
2019-02-06T09:40:13.828Z,290.20
2019-02-06T09:41:14.009Z,289.57
2019-02-06T09:42:14.214Z,289.81
2019-02-06T09:43:14.439Z,289.65
2019-02-06T09:44:14.627Z,290.70
2019-02-06T09:45:14.956Z,290.01
2019-02-06T09:46:15.034Z,289.75
2019-02-06T09:47:15.248Z,290.03
2019-02-06T09:48:15.474Z,289.71
2019-02-06T09:49:15.665Z,289.73
2019-02-06T09:50:15.887Z,289.45
2019-02-06T09:51:16.059Z,290.31
2019-02-06T09:52:16.286Z,290.57
2019-02-06T09:53:16.816Z,289.99
2019-02-06T09:54:16.696Z,290.27
2019-02-06T09:55:16.893Z,289.82
2019-02-06T09:56:17.116Z,290.38
2019-02-06T09:57:17.305Z,290.82
2019-02-06T09:58:17.542Z,290.67
2019-02-06T09:59:17.737Z,289.53
2019-02-06T10:00:17.939Z,289.51
2019-02-06T10:01:21.268Z,289.01
2019-02-06T10:02:18.333Z,289.55
2019-02-06T10:03:18.582Z,289.29
2019-02-06T10:04:18.783Z,289.07
2019-02-06T10:05:18.987Z,289.91
2019-02-06T10:06:19.237Z,290.30
2019-02-06T10:07:19.412Z,290.05
2019-02-06T10:08:19.630Z,290.09
2019-02-06T10:09:22.901Z,289.75
2019-02-06T10:10:20.079Z,289.55
2019-02-06T10:11:20.258Z,291.13
2019-02-06T10:12:20.443Z,289.92
2019-02-06T10:13:20.670Z,289.45
2019-02-06T10:14:20.853Z,289.54
2019-02-06T10:15:21.062Z,291.52
2019-02-06T10:16:21.302Z,289.62
2019-02-06T10:17:21.484Z,288.83
2019-02-06T10:18:21.799Z,289.60
2019-02-06T10:19:21.896Z,289.85
2019-02-06T10:20:22.182Z,288.75
2019-02-06T10:21:22.356Z,289.52
2019-02-06T10:22:22.539Z,289.65
2019-02-06T10:23:22.919Z,289.31
2019-02-06T10:24:22.940Z,289.66
2019-02-06T10:25:23.143Z,288.48
2019-02-06T10:26:23.495Z,289.10
2019-02-06T10:27:24.123Z,288.98
2019-02-06T10:28:24.309Z,289.39
2019-02-06T10:29:23.947Z,289.40
2019-02-06T10:30:24.177Z,289.26
2019-02-06T10:31:24.426Z,289.64
2019-02-06T10:32:24.608Z,288.90
2019-02-06T10:33:24.831Z,288.97
2019-02-06T10:34:25.064Z,289.25
2019-02-06T10:35:25.195Z,289.03
2019-02-06T10:36:25.455Z,288.66
2019-02-06T10:37:25.641Z,289.27
2019-02-06T10:38:25.864Z,288.72
2019-02-06T10:39:34.331Z,289.26
2019-02-06T10:40:27.259Z,288.64
2019-02-06T10:41:26.487Z,288.80
2019-02-06T10:42:26.690Z,288.60
2019-02-06T10:43:32.048Z,288.59
2019-02-06T10:44:28.084Z,288.84
2019-02-06T10:45:27.285Z,288.66
2019-02-06T10:46:27.530Z,289.25
2019-02-06T10:47:27.682Z,289.38
2019-02-06T10:48:27.910Z,289.98
2019-02-06T10:49:28.111Z,288.66
2019-02-06T10:50:28.338Z,289.01
2019-02-06T10:51:28.635Z,289.06
2019-02-06T10:52:28.716Z,288.73
2019-02-06T10:53:28.941Z,288.71
2019-02-06T10:54:29.152Z,288.91
2019-02-06T10:55:29.372Z,289.14
2019-02-06T10:56:29.598Z,291.95
2019-02-06T10:57:29.778Z,289.75
2019-02-06T10:58:29.971Z,289.54
2019-02-06T10:59:30.298Z,289.09
2019-02-06T11:00:30.434Z,289.38
2019-02-06T11:01:30.669Z,289.24
2019-02-06T11:02:30.844Z,290.18
2019-02-06T11:03:31.043Z,289.70
2019-02-06T11:04:31.281Z,289.24
2019-02-06T11:05:31.493Z,290.59
2019-02-06T11:06:31.725Z,289.80
2019-02-06T11:07:31.970Z,289.69
2019-02-06T11:08:32.090Z,289.60
2019-02-06T11:09:32.325Z,289.55
2019-02-06T11:10:32.538Z,289.14
2019-02-06T11:11:32.743Z,288.38
2019-02-06T11:12:32.927Z,287.53
2019-02-06T11:13:33.134Z,288.01
2019-02-06T11:14:33.351Z,287.82
2019-02-06T11:15:33.605Z,291.76
2019-02-06T11:16:33.752Z,288.71
2019-02-06T11:17:33.959Z,288.95
2019-02-06T11:18:34.157Z,288.39
2019-02-06T11:19:34.377Z,288.01
2019-02-06T11:20:34.553Z,287.90
2019-02-06T11:21:34.771Z,287.43
2019-02-06T11:22:34.989Z,288.36
2019-02-06T11:23:35.228Z,288.54
2019-02-06T11:24:35.443Z,288.43
2019-02-06T11:25:35.589Z,289.27
2019-02-06T11:26:35.812Z,288.51
2019-02-06T11:27:36.020Z,288.55
2019-02-06T11:28:36.210Z,287.85
2019-02-06T11:29:36.440Z,287.60
2019-02-06T11:30:36.636Z,288.33
2019-02-06T11:31:36.867Z,287.96
2019-02-06T11:32:37.143Z,287.44
2019-02-06T11:33:37.476Z,287.74
2019-02-06T11:34:37.475Z,287.57
2019-02-06T11:35:37.659Z,289.83
2019-02-06T11:36:37.884Z,288.72
2019-02-06T11:37:38.084Z,287.97
2019-02-06T11:38:38.274Z,287.10
2019-02-06T11:39:38.515Z,287.56
2019-02-06T11:40:38.814Z,287.56
2019-02-06T11:41:38.909Z,287.27
2019-02-06T11:42:39.110Z,287.63
2019-02-06T11:43:39.337Z,287.88
2019-02-06T11:44:39.567Z,287.63
2019-02-06T11:45:39.762Z,288.10
2019-02-06T11:46:39.975Z,288.11
2019-02-06T11:47:40.161Z,287.79
2019-02-06T11:48:43.220Z,288.45
2019-02-06T11:49:40.581Z,288.06
2019-02-06T11:50:40.795Z,288.06
2019-02-06T11:51:41.004Z,288.59
2019-02-06T11:52:41.203Z,288.55
2019-02-06T11:53:41.389Z,287.59
2019-02-06T11:54:41.625Z,290.59
2019-02-06T11:55:41.833Z,288.63
2019-02-06T11:56:42.097Z,288.43
2019-02-06T11:57:42.237Z,288.09
2019-02-06T11:58:42.436Z,288.59
2019-02-06T11:59:42.650Z,287.75
2019-02-06T12:00:42.846Z,286.97
2019-02-06T12:01:43.058Z,287.79
2019-02-06T12:02:43.282Z,288.34
2019-02-06T12:03:43.472Z,288.23
2019-02-06T12:04:43.822Z,289.16
2019-02-06T12:05:43.925Z,287.79
2019-02-06T12:06:44.083Z,288.66
2019-02-06T12:07:44.323Z,288.27
2019-02-06T12:08:44.522Z,288.21
2019-02-06T12:09:44.750Z,288.22
2019-02-06T12:10:44.926Z,289.12
2019-02-06T12:11:45.145Z,288.25
2019-02-06T12:12:45.410Z,287.86
2019-02-06T12:13:51.219Z,287.17
2019-02-06T12:14:45.797Z,287.70
2019-02-06T12:15:45.981Z,287.73
2019-02-06T12:16:46.217Z,288.67
2019-02-06T12:17:46.488Z,288.71
2019-02-06T12:18:46.887Z,288.05
2019-02-06T12:19:46.856Z,288.38
2019-02-06T12:20:47.039Z,287.96
2019-02-06T12:21:47.373Z,287.59
2019-02-06T12:22:47.501Z,287.57
2019-02-06T12:23:48.206Z,287.06
2019-02-06T12:24:47.906Z,286.71
2019-02-06T12:25:48.080Z,286.93
2019-02-06T12:26:48.274Z,287.41
2019-02-06T12:27:48.991Z,287.37
2019-02-06T12:28:48.705Z,287.15
2019-02-06T12:29:48.991Z,286.65
2019-02-06T12:30:49.500Z,287.52